Time;durP1;ratioP1;P1;durP2;ratioP2;P2;SDS_P1;SDS_P2;PMS_P1;PMS_P2;Temp;Humidity;BMP_temperature;BMP_pressure;BME280_temperature;BME280_humidity;BME280_pressure;Samples;Min_cycle;Max_cycle;Signal;HPM_P1;HPM_P2
2021/10/19 00:00:00;;;;;;;4.20;1.80;;;;;;;25.95;46.41;100255.00;4418499;32;20042;-68
2021/10/19 00:02:26;;;;;;;2.40;1.90;;;;;;;26.00;46.47;100251.25;4420162;32;20588;-68
2021/10/19 00:04:52;;;;;;;3.15;1.52;;;;;;;25.97;46.32;100248.66;4420023;32;20069;-68
2021/10/19 00:07:18;;;;;;;2.62;1.73;;;;;;;25.70;46.75;100238.50;4422462;32;20049;-68
2021/10/19 00:09:44;;;;;;;2.80;2.25;;;;;;;25.70;46.92;100241.38;4421755;32;20387;-68
2021/10/19 00:12:10;;;;;;;3.08;1.80;;;;;;;25.01;48.35;100239.53;4422005;32;20156;-68
2021/10/19 00:14:35;;;;;;;2.25;1.70;;;;;;;25.03;48.24;100242.66;4422185;32;20041;-68
2021/10/19 00:17:01;;;;;;;3.40;2.17;;;;;;;25.44;47.15;100250.03;4422515;32;20029;-68
2021/10/19 00:19:27;;;;;;;2.60;1.60;;;;;;;25.49;47.38;100244.16;4421202;32;20137;-68
2021/10/19 00:21:53;;;;;;;5.20;1.70;;;;;;;25.27;47.76;100225.19;4419811;32;20480;-68
2021/10/19 00:24:18;;;;;;;1.45;1.35;;;;;;;25.47;47.11;100220.91;4421779;32;20100;-68
2021/10/19 00:26:45;;;;;;;4.32;1.40;;;;;;;25.38;47.18;100227.88;4421334;32;20046;-68
2021/10/19 00:29:11;;;;;;;1.40;1.30;;;;;;;25.38;47.21;100247.28;4419508;32;20053;-68
2021/10/19 00:31:36;;;;;;;2.00;1.75;;;;;;;25.01;47.92;100253.94;4421310;32;20098;-69
2021/10/19 00:34:03;;;;;;;3.25;1.73;;;;;;;25.04;48.02;100249.97;4422365;32;20103;-69
2021/10/19 00:36:28;;;;;;;2.10;1.67;;;;;;;25.31;47.52;100254.47;4422997;32;20082;-68
2021/10/19 00:38:54;;;;;;;6.22;2.00;;;;;;;25.22;47.52;100265.62;4422091;32;20536;-69
2021/10/19 00:41:22;;;;;;;5.10;3.72;;;;;;;25.19;47.64;100281.88;4418878;32;20369;-68
2021/10/19 00:43:49;;;;;;;5.07;2.20;;;;;;;25.48;47.01;100285.84;4420587;32;20086;-69
2021/10/19 00:46:15;;;;;;;3.75;2.15;;;;;;;25.54;46.96;100272.09;4419012;32;20038;-68
2021/10/19 00:48:46;;;;;;;2.15;1.60;;;;;;;25.41;47.08;100260.56;4421974;32;20085;-69
2021/10/19 00:51:12;;;;;;;2.22;1.92;;;;;;;25.63;46.66;100265.09;4420887;32;20029;-69
2021/10/19 00:53:38;;;;;;;2.10;1.73;;;;;;;25.54;46.97;100260.56;4420738;32;20093;-69
2021/10/19 00:56:06;;;;;;;2.95;2.47;;;;;;;25.88;46.28;100255.66;4420225;32;20103;-69
2021/10/19 00:58:33;;;;;;;2.40;2.20;;;;;;;26.16;45.71;100252.19;4420921;32;20050;-69
2021/10/19 01:00:59;;;;;;;3.33;2.03;;;;;;;26.02;45.95;100247.81;4420558;32;20050;-69
2021/10/19 01:03:25;;;;;;;2.30;1.90;;;;;;;25.91;45.81;100251.69;4420523;32;20089;-69
2021/10/19 01:05:51;;;;;;;3.33;2.17;;;;;;;26.02;45.93;100265.09;4419972;32;20414;-69
2021/10/19 01:08:17;;;;;;;2.95;2.40;;;;;;;25.87;46.35;100274.31;4422486;32;20073;-69
2021/10/19 01:10:44;;;;;;;3.87;2.10;;;;;;;25.87;46.21;100262.78;4422427;32;20521;-69
2021/10/19 01:13:12;;;;;;;4.55;2.00;;;;;;;26.01;46.12;100252.03;4423970;32;20455;-69
2021/10/19 01:15:37;;;;;;;4.35;2.28;;;;;;;25.83;46.37;100250.78;4421305;32;20050;-68
2021/10/19 01:18:03;;;;;;;2.08;1.87;;;;;;;25.75;46.37;100252.81;4420331;32;20081;-69
2021/10/19 01:20:35;;;;;;;3.72;1.70;;;;;;;25.81;46.36;100258.44;4418094;32;20071;-68
2021/10/19 01:23:02;;;;;;;2.42;1.95;;;;;;;26.00;45.80;100264.88;4421752;32;20161;-68
2021/10/19 01:25:31;;;;;;;3.30;1.95;;;;;;;25.82;46.05;100240.59;4417839;32;20625;-68
2021/10/19 01:28:00;;;;;;;5.43;1.60;;;;;;;25.91;46.10;100245.91;4418694;32;20533;-68
2021/10/19 01:30:26;;;;;;;1.87;1.50;;;;;;;26.00;45.58;100248.38;4422909;32;20041;-68
2021/10/19 01:32:53;;;;;;;3.05;2.12;;;;;;;26.11;45.71;100264.66;4418164;32;20052;-69
2021/10/19 01:35:30;;;;;;;3.15;1.50;;;;;;;26.09;45.65;100241.34;4421321;32;20093;-69
2021/10/19 01:37:56;;;;;;;2.00;1.80;;;;;;;26.26;44.90;100247.53;4422179;32;20085;-69
2021/10/19 01:40:21;;;;;;;1.95;1.70;;;;;;;25.92;45.97;100250.34;4420597;32;20040;-69
2021/10/19 01:42:47;;;;;;;3.28;1.92;;;;;;;26.00;45.73;100250.47;4421358;32;20341;-69
2021/10/19 01:45:16;;;;;;;3.03;2.20;;;;;;;26.02;45.88;100250.69;4418854;32;20107;-69
2021/10/19 01:47:42;;;;;;;4.07;1.90;;;;;;;26.17;45.77;100251.63;4419218;32;20499;-69
2021/10/19 01:50:09;;;;;;;2.65;1.67;;;;;;;25.99;46.01;100249.72;4421907;32;20473;-69
2021/10/19 01:52:35;;;;;;;2.87;2.20;;;;;;;26.16;45.59;100246.44;4421087;32;20100;-69
2021/10/19 01:55:02;;;;;;;4.10;1.90;;;;;;;25.98;45.86;100264.69;4421660;32;20386;-69
2021/10/19 01:57:28;;;;;;;5.30;2.50;;;;;;;26.08;45.80;100254.97;4420955;32;20081;-69
2021/10/19 01:59:54;;;;;;;3.17;2.00;;;;;;;26.01;45.94;100234.72;4421591;32;20178;-69
2021/10/19 02:02:20;;;;;;;2.30;2.10;;;;;;;25.99;45.71;100229.53;4418775;32;20085;-69
2021/10/19 02:04:45;;;;;;;3.58;2.22;;;;;;;25.88;45.74;100229.72;4419630;32;21356;-68
2021/10/19 02:07:11;;;;;;;2.97;2.30;;;;;;;25.92;46.10;100229.41;4414520;32;20058;-68
2021/10/19 02:09:37;;;;;;;4.50;2.35;;;;;;;25.81;46.33;100229.63;4420882;32;20150;-68
2021/10/19 02:12:03;;;;;;;3.00;2.37;;;;;;;25.56;46.84;100225.44;4421109;32;20081;-68
2021/10/19 02:14:28;;;;;;;3.45;2.78;;;;;;;25.61;46.66;100227.44;4418357;32;20100;-68
2021/10/19 02:16:54;;;;;;;3.92;2.58;;;;;;;25.48;47.05;100241.84;4422705;32;20532;-69
2021/10/19 02:19:25;;;;;;;5.22;2.90;;;;;;;25.54;46.99;100231.75;4421296;32;20034;-68
2021/10/19 02:21:52;;;;;;;3.03;2.62;;;;;;;25.52;47.08;100228.66;4420202;32;20083;-68
2021/10/19 02:24:20;;;;;;;4.28;3.10;;;;;;;25.93;46.46;100216.53;4421556;32;20081;-68
2021/10/19 02:26:46;;;;;;;3.80;2.92;;;;;;;26.04;46.17;100198.97;4422924;32;20138;-68
2021/10/19 02:29:14;;;;;;;5.43;3.20;;;;;;;25.87;46.39;100192.81;4420726;32;20368;-68
2021/10/19 02:31:39;;;;;;;3.22;2.75;;;;;;;25.68;46.88;100200.81;4421875;32;20042;-68
2021/10/19 02:34:05;;;;;;;4.40;2.95;;;;;;;25.66;46.72;100194.84;4420786;32;20064;-68
2021/10/19 02:36:32;;;;;;;6.80;3.35;;;;;;;25.75;46.54;100171.31;4421264;32;20046;-68
2021/10/19 02:38:59;;;;;;;4.97;3.03;;;;;;;25.48;47.05;100204.38;4421771;32;20101;-68
2021/10/19 02:41:26;;;;;;;3.25;2.70;;;;;;;25.44;47.24;100190.31;4423848;32;20089;-69
2021/10/19 02:43:52;;;;;;;3.55;2.30;;;;;;;25.34;47.53;100187.09;4425460;32;20081;-69
2021/10/19 02:46:17;;;;;;;5.07;2.70;;;;;;;25.27;47.55;100190.63;4419325;32;20102;-69
2021/10/19 02:48:44;;;;;;;3.58;2.20;;;;;;;25.43;47.25;100174.34;4423138;32;20069;-68
2021/10/19 02:51:10;;;;;;;3.42;2.80;;;;;;;25.67;46.68;100173.34;4424165;32;20021;-68
2021/10/19 02:53:35;;;;;;;4.25;2.65;;;;;;;25.63;46.82;100173.66;4422097;32;20135;-68
2021/10/19 02:56:01;;;;;;;4.15;2.65;;;;;;;25.79;46.47;100178.28;4422304;32;20038;-69
2021/10/19 02:58:27;;;;;;;5.72;2.75;;;;;;;25.73;46.58;100163.22;4423140;32;20440;-68
2021/10/19 03:00:52;;;;;;;3.55;2.30;;;;;;;25.68;46.69;100169.13;4421862;32;20069;-68
2021/10/19 03:03:18;;;;;;;2.83;2.40;;;;;;;25.66;46.58;100178.31;4423645;32;20084;-68
2021/10/19 03:05:44;;;;;;;6.03;2.72;;;;;;;25.65;46.66;100173.91;4422094;32;20078;-68
2021/10/19 03:08:10;;;;;;;4.75;2.85;;;;;;;25.61;46.75;100176.31;4419454;32;20148;-68
2021/10/19 03:10:35;;;;;;;4.53;2.92;;;;;;;25.61;46.81;100182.09;4424058;32;20630;-68
2021/10/19 03:13:01;;;;;;;3.42;2.67;;;;;;;25.84;46.20;100179.50;4421063;32;20378;-69
2021/10/19 03:15:27;;;;;;;4.00;3.60;;;;;;;25.96;45.88;100163.50;4422666;32;20069;-68
2021/10/19 03:17:53;;;;;;;4.53;3.30;;;;;;;25.65;46.78;100147.97;4421002;32;20077;-69
2021/10/19 03:20:18;;;;;;;6.35;3.80;;;;;;;25.63;46.61;100135.44;4421753;32;20085;-68
2021/10/19 03:22:44;;;;;;;7.22;3.17;;;;;;;25.84;46.19;100144.91;4422323;32;20107;-68
2021/10/19 03:25:10;;;;;;;4.25;3.05;;;;;;;25.65;46.63;100155.81;4421896;32;20466;-68
2021/10/19 03:27:35;;;;;;;7.68;3.37;;;;;;;25.69;46.44;100139.75;4424552;32;20083;-68
2021/10/19 03:30:01;;;;;;;6.05;3.55;;;;;;;25.75;46.35;100128.87;4425187;32;20099;-69
2021/10/19 03:32:27;;;;;;;5.47;3.17;;;;;;;25.42;46.86;100126.72;4423502;32;20391;-69
2021/10/19 03:34:52;;;;;;;5.30;3.22;;;;;;;25.69;46.33;100133.97;4422123;32;20077;-69
2021/10/19 03:37:18;;;;;;;4.25;3.10;;;;;;;25.60;46.50;100136.53;4421595;32;20045;-69
2021/10/19 03:39:43;;;;;;;4.68;3.40;;;;;;;25.56;46.42;100136.13;4423548;32;20483;-69
2021/10/19 03:42:09;;;;;;;3.53;2.92;;;;;;;25.62;46.28;100148.28;4422187;32;20100;-69
2021/10/19 03:44:35;;;;;;;7.18;3.50;;;;;;;25.74;46.12;100129.41;4421023;32;20435;-68
2021/10/19 03:47:00;;;;;;;4.10;3.47;;;;;;;25.68;46.32;100138.19;4418884;32;20099;-68
2021/10/19 03:49:26;;;;;;;4.25;3.60;;;;;;;25.66;46.33;100129.34;4423538;32;20041;-68
2021/10/19 03:51:52;;;;;;;8.73;3.70;;;;;;;25.52;46.65;100132.81;4419637;32;20375;-68
2021/10/19 03:54:18;;;;;;;5.97;4.03;;;;;;;25.72;46.21;100118.44;4422428;32;20069;-68
2021/10/19 03:56:44;;;;;;;7.95;4.12;;;;;;;25.49;46.84;100114.50;4423631;32;20452;-68
2021/10/19 03:59:10;;;;;;;5.55;4.32;;;;;;;25.20;47.12;100107.00;4421485;32;20046;-68
2021/10/19 04:01:36;;;;;;;5.07;4.07;;;;;;;25.33;46.87;100124.28;4420530;32;20034;-68
2021/10/19 04:04:02;;;;;;;4.87;4.10;;;;;;;25.38;46.88;100115.53;4421050;32;20100;-68
2021/10/19 04:06:28;;;;;;;5.18;4.37;;;;;;;25.05;47.72;100121.97;4419211;32;20084;-68
2021/10/19 04:08:54;;;;;;;6.72;4.43;;;;;;;25.26;47.19;100099.03;4422346;32;20073;-68
2021/10/19 04:11:19;;;;;;;5.95;4.80;;;;;;;25.09;47.76;100092.81;4421661;32;20113;-68
2021/10/19 04:13:45;;;;;;;6.25;4.72;;;;;;;25.13;47.61;100070.25;4420494;32;20482;-68
2021/10/19 04:16:11;;;;;;;7.18;5.35;;;;;;;25.51;46.72;100059.22;4422973;32;20025;-68
2021/10/19 04:18:37;;;;;;;5.90;4.97;;;;;;;25.58;46.75;100053.53;4419227;32;20427;-68
2021/10/19 04:21:03;;;;;;;7.05;5.45;;;;;;;25.58;46.78;100055.66;4421453;32;20041;-68
2021/10/19 04:23:28;;;;;;;7.97;6.12;;;;;;;25.51;46.97;100064.97;4419237;32;20098;-69
2021/10/19 04:25:54;;;;;;;12.65;6.93;;;;;;;25.42;46.88;100062.56;4421467;32;20061;-69
2021/10/19 04:28:20;;;;;;;10.00;7.00;;;;;;;25.42;46.81;100059.66;4423425;32;20053;-68
2021/10/19 04:30:47;;;;;;;10.10;7.40;;;;;;;25.32;47.36;100083.19;4422715;32;20070;-68
2021/10/19 04:33:14;;;;;;;10.75;8.23;;;;;;;25.04;48.00;100085.09;4422670;32;20400;-68
2021/10/19 04:35:40;;;;;;;10.05;8.07;;;;;;;25.26;47.76;100088.28;4421094;32;20053;-68
2021/10/19 04:38:06;;;;;;;11.55;7.78;;;;;;;25.23;47.44;100086.50;4425123;32;20062;-68
2021/10/19 04:40:32;;;;;;;10.20;8.40;;;;;;;25.20;47.70;100084.75;4419097;32;20080;-68
2021/10/19 04:43:00;;;;;;;11.82;7.43;;;;;;;25.49;47.03;100090.69;4421004;32;20068;-69
2021/10/19 04:45:26;;;;;;;13.48;8.32;;;;;;;25.48;47.14;100066.88;4419484;32;20110;-69
2021/10/19 04:47:51;;;;;;;9.73;7.97;;;;;;;25.37;47.39;100079.41;4422593;32;20049;-69
2021/10/19 04:50:17;;;;;;;10.07;7.53;;;;;;;25.44;47.12;100066.44;4421870;32;20306;-69
2021/10/19 04:52:43;;;;;;;10.77;7.90;;;;;;;25.47;47.23;100070.31;4419702;32;20620;-68
2021/10/19 04:55:09;;;;;;;9.48;7.85;;;;;;;25.20;47.83;100070.34;4422134;32;20076;-68
2021/10/19 04:57:34;;;;;;;10.57;7.30;;;;;;;25.31;47.63;100060.66;4419781;32;20045;-68
2021/10/19 05:00:00;;;;;;;11.20;7.50;;;;;;;25.39;47.28;100052.94;4423382;32;20139;-68
2021/10/19 05:02:26;;;;;;;10.35;7.87;;;;;;;25.38;47.29;100045.62;4422666;32;20467;-68
2021/10/19 05:04:51;;;;;;;10.02;7.05;;;;;;;25.27;47.71;100043.75;4419667;32;20037;-68
2021/10/19 05:07:17;;;;;;;7.62;6.57;;;;;;;25.43;47.44;100046.84;4423181;32;20115;-68
2021/10/19 05:09:42;;;;;;;8.95;6.32;;;;;;;25.47;47.34;100048.03;4419309;32;20125;-68
2021/10/19 05:12:08;;;;;;;10.35;6.75;;;;;;;25.37;47.61;100061.34;4418216;32;20101;-68
2021/10/19 05:14:34;;;;;;;7.82;5.82;;;;;;;25.49;47.11;100044.59;4419776;32;20053;-69
2021/10/19 05:16:59;;;;;;;9.07;6.30;;;;;;;25.41;47.57;100040.84;4420346;32;20085;-68
2021/10/19 05:19:25;;;;;;;8.27;5.60;;;;;;;25.27;48.00;100031.44;4421348;32;20113;-68
2021/10/19 05:21:51;;;;;;;8.60;5.57;;;;;;;25.01;48.47;100029.38;4420805;32;20038;-68
2021/10/19 05:24:16;;;;;;;8.18;5.97;;;;;;;24.88;48.88;100032.28;4424325;32;20104;-68
2021/10/19 05:26:42;;;;;;;8.20;6.05;;;;;;;24.58;49.79;100013.78;4421756;32;20133;-68
2021/10/19 05:29:08;;;;;;;7.53;5.10;;;;;;;24.82;49.36;100016.47;4421330;32;20429;-67
2021/10/19 05:31:33;;;;;;;6.85;5.70;;;;;;;24.64;49.80;100012.34;4421278;32;20128;-67
2021/10/19 05:34:00;;;;;;;7.50;5.07;;;;;;;24.73;49.65;100000.41;4422219;32;20077;-67
2021/10/19 05:36:26;;;;;;;6.55;5.12;;;;;;;24.79;49.48;99995.31;4418426;32;20053;-67
2021/10/19 05:38:51;;;;;;;7.70;5.93;;;;;;;24.76;49.88;99993.53;4422698;32;20490;-67
2021/10/19 05:41:17;;;;;;;6.68;5.28;;;;;;;24.82;49.76;99985.56;4419861;32;20501;-67
2021/10/19 05:43:45;;;;;;;7.50;5.93;;;;;;;24.50;50.66;99973.41;4421333;32;20458;-67
2021/10/19 05:46:13;;;;;;;7.90;5.47;;;;;;;24.64;50.56;99977.81;4420965;32;20076;-67
2021/10/19 05:48:38;;;;;;;6.45;5.43;;;;;;;24.45;50.67;99982.12;4424565;32;20206;-67
2021/10/19 05:51:05;;;;;;;8.07;5.35;;;;;;;24.29;51.42;99981.13;4424530;32;20046;-67
2021/10/19 05:53:34;;;;;;;7.45;5.90;;;;;;;24.67;50.63;99978.84;4426047;32;20086;-67
2021/10/19 05:55:59;;;;;;;9.07;6.60;;;;;;;24.47;51.32;99942.84;4421342;32;20519;-67
2021/10/19 05:58:25;;;;;;;8.73;7.35;;;;;;;24.20;52.12;99946.28;4424903;32;20102;-67
2021/10/19 06:00:51;;;;;;;11.50;7.00;;;;;;;24.53;51.61;99948.50;4423779;32;20124;-67
2021/10/19 06:03:17;;;;;;;10.30;6.62;;;;;;;24.68;51.06;99942.97;4425307;32;20142;-67
2021/10/19 06:05:43;;;;;;;10.25;7.05;;;;;;;24.67;51.02;99964.47;4425983;32;20439;-67
2021/10/19 06:08:09;;;;;;;9.50;6.97;;;;;;;24.63;51.31;99966.84;4422472;32;20089;-67
2021/10/19 06:10:35;;;;;;;11.30;7.45;;;;;;;25.00;50.43;99957.97;4421640;32;20090;-66
2021/10/19 06:13:01;;;;;;;11.25;7.25;;;;;;;25.11;50.39;99954.84;4423611;32;20061;-67
2021/10/19 06:15:27;;;;;;;13.38;8.40;;;;;;;25.35;50.07;99955.31;4423133;32;20077;-66
2021/10/19 06:17:54;;;;;;;14.38;7.90;;;;;;;25.33;50.10;99952.25;4421810;32;20171;-67
2021/10/19 06:20:20;;;;;;;9.93;7.97;;;;;;;25.27;49.84;99934.28;4422846;32;20099;-67
2021/10/19 06:22:46;;;;;;;11.50;8.20;;;;;;;25.59;49.50;99957.13;4424799;32;20038;-67
2021/10/19 06:25:12;;;;;;;11.30;8.93;;;;;;;25.53;49.61;99958.59;4422519;32;20070;-67
2021/10/19 06:27:38;;;;;;;12.80;9.73;;;;;;;25.47;49.23;99955.06;4422441;32;20379;-67
2021/10/19 06:30:05;;;;;;;14.95;10.40;;;;;;;25.48;49.58;99968.91;4418549;32;20337;-67
2021/10/19 06:32:30;;;;;;;14.00;10.63;;;;;;;25.51;49.44;99970.66;4419292;32;20073;-67
2021/10/19 06:34:57;;;;;;;14.70;10.63;;;;;;;25.37;49.41;99972.03;4424375;32;20038;-67
2021/10/19 06:37:22;;;;;;;19.62;11.68;;;;;;;25.26;50.08;99990.34;4421142;32;20042;-67
2021/10/19 06:39:48;;;;;;;22.20;12.20;;;;;;;25.24;50.16;99972.84;4420081;32;20111;-69
2021/10/19 06:42:14;;;;;;;24.00;12.37;;;;;;;25.48;50.00;99973.88;4418291;32;20471;-68
2021/10/19 06:44:39;;;;;;;22.80;13.55;;;;;;;25.20;50.77;99971.66;4419869;32;20287;-67
2021/10/19 06:47:05;;;;;;;22.95;12.10;;;;;;;25.27;50.98;99976.72;4415663;32;20666;-68
2021/10/19 06:49:31;;;;;;;20.95;13.07;;;;;;;25.34;50.70;99947.25;4417412;32;20552;-67
2021/10/19 06:51:56;;;;;;;18.02;11.20;;;;;;;25.28;51.04;99961.00;4415911;32;20049;-68
2021/10/19 06:54:22;;;;;;;18.98;12.60;;;;;;;25.30;51.10;99947.56;4413815;32;20041;-68
2021/10/19 06:56:47;;;;;;;12.70;9.45;;;;;;;25.30;51.09;99935.28;4413111;32;20085;-68
2021/10/19 06:59:13;;;;;;;13.32;8.20;;;;;;;25.37;51.11;99923.88;4415066;32;20119;-68
2021/10/19 07:01:39;;;;;;;12.43;9.10;;;;;;;25.40;51.04;99909.69;4409746;32;20061;-67
2021/10/19 07:04:04;;;;;;;21.08;9.23;;;;;;;25.43;51.05;99900.66;4408540;32;20118;-67
2021/10/19 07:06:30;;;;;;;16.90;7.22;;;;;;;25.51;51.06;99903.63;4412788;32;20490;-68
2021/10/19 07:08:56;;;;;;;11.65;7.07;;;;;;;25.46;51.05;99893.78;4412954;32;20089;-69
2021/10/19 07:11:26;;;;;;;10.23;6.80;;;;;;;25.56;51.06;99891.19;4405571;32;20084;-69
2021/10/19 07:13:53;;;;;;;9.55;6.18;;;;;;;25.60;51.03;99885.84;4412060;32;20123;-69
2021/10/19 07:16:19;;;;;;;14.90;7.62;;;;;;;25.75;50.82;99888.84;4407154;32;20085;-69
2021/10/19 07:18:45;;;;;;;16.15;7.47;;;;;;;25.71;50.76;99894.22;4412370;32;20189;-68
2021/10/19 07:21:11;;;;;;;11.05;6.57;;;;;;;25.66;50.72;99898.00;4416419;32;20563;-67
2021/10/19 07:23:37;;;;;;;13.68;7.65;;;;;;;25.66;50.97;99892.25;4409953;32;20145;-68
2021/10/19 07:26:03;;;;;;;13.80;7.30;;;;;;;25.78;51.18;99882.75;4410099;32;20599;-68
2021/10/19 07:28:29;;;;;;;13.88;7.57;;;;;;;25.81;51.17;99883.72;4413976;32;20053;-68
2021/10/19 07:30:55;;;;;;;13.13;6.43;;;;;;;25.94;51.03;99887.28;4413207;32;20092;-68
2021/10/19 07:33:20;;;;;;;10.50;6.47;;;;;;;26.03;50.34;99875.28;4414299;32;20049;-68
2021/10/19 07:35:46;;;;;;;15.60;6.60;;;;;;;26.00;50.55;99878.50;4411532;32;20399;-68
2021/10/19 07:38:13;;;;;;;10.93;6.70;;;;;;;26.04;50.61;99871.03;4410607;32;20490;-68
2021/10/19 07:40:39;;;;;;;6.60;4.90;;;;;;;26.14;50.59;99863.41;4411928;32;20089;-68
2021/10/19 07:43:05;;;;;;;9.75;4.82;;;;;;;26.13;50.24;99861.88;4417552;32;20764;-67
2021/10/19 07:45:31;;;;;;;8.95;5.60;;;;;;;26.09;50.36;99863.56;4418626;32;20707;-67
2021/10/19 07:48:00;;;;;;;10.30;6.03;;;;;;;26.12;50.31;99857.44;4412400;32;20081;-68
2021/10/19 07:50:29;;;;;;;7.80;3.87;;;;;;;26.25;50.35;99859.44;4415915;32;20119;-68
2021/10/19 07:52:57;;;;;;;8.43;3.95;;;;;;;25.92;50.49;99860.38;4413615;32;20197;-68
2021/10/19 07:55:24;;;;;;;5.20;3.50;;;;;;;26.27;49.84;99859.66;4416613;32;20093;-68
2021/10/19 07:57:51;;;;;;;6.12;3.83;;;;;;;25.99;50.34;99857.56;4413487;32;20078;-68
2021/10/19 08:00:22;;;;;;;7.22;3.80;;;;;;;26.03;50.31;99849.31;4416729;32;20059;-68
2021/10/19 08:02:48;;;;;;;7.70;3.45;;;;;;;25.99;50.69;99848.91;4413941;32;20081;-68
2021/10/19 08:05:15;;;;;;;5.22;3.35;;;;;;;25.81;51.29;99834.72;4416286;32;20123;-67
2021/10/19 08:07:42;;;;;;;4.80;3.42;;;;;;;25.71;51.49;99830.81;4415693;32;20085;-67
2021/10/19 08:10:11;;;;;;;5.72;3.67;;;;;;;25.66;51.79;99823.06;4414632;32;20101;-67
2021/10/19 08:12:37;;;;;;;7.00;4.53;;;;;;;25.60;51.93;99816.69;4413557;32;20128;-67
2021/10/19 08:15:04;;;;;;;5.35;4.03;;;;;;;25.46;52.32;99818.87;4414923;32;20953;-67
2021/10/19 08:17:30;;;;;;;7.62;4.12;;;;;;;25.62;52.36;99811.16;4412433;32;20526;-67
2021/10/19 08:19:59;;;;;;;9.98;5.53;;;;;;;25.81;51.87;99805.91;4414715;32;20408;-67
2021/10/19 08:22:28;;;;;;;7.57;4.97;;;;;;;25.79;52.10;99808.56;4414639;32;20045;-67
2021/10/19 08:24:55;;;;;;;8.40;4.75;;;;;;;25.94;52.13;99820.97;4412270;32;21600;-68
2021/10/19 08:27:22;;;;;;;7.62;4.87;;;;;;;25.84;52.58;99807.66;4413106;32;20038;-67
2021/10/19 08:29:48;;;;;;;8.75;5.60;;;;;;;25.96;52.33;99798.13;4415651;32;20485;-68
2021/10/19 08:32:14;;;;;;;9.18;6.22;;;;;;;26.10;51.80;99790.91;4417173;32;20077;-68
2021/10/19 08:34:39;;;;;;;10.57;6.62;;;;;;;25.97;52.42;99793.13;4416880;32;20498;-68
2021/10/19 08:37:05;;;;;;;10.18;7.32;;;;;;;25.40;54.14;99798.09;4411436;32;20146;-68
2021/10/19 08:39:31;;;;;;;11.40;6.37;;;;;;;25.65;53.35;99781.19;4415967;32;20326;-68
2021/10/19 08:41:57;;;;;;;9.38;6.80;;;;;;;25.75;53.52;99785.88;4416662;32;20311;-68
2021/10/19 08:44:23;;;;;;;10.15;6.45;;;;;;;25.38;54.42;99784.25;4412640;32;20214;-68
2021/10/19 08:46:50;;;;;;;9.20;6.25;;;;;;;25.46;54.33;99774.91;4415863;32;20068;-68
2021/10/19 08:49:15;;;;;;;7.25;5.70;;;;;;;25.54;54.45;99785.16;4415717;32;20092;-68
2021/10/19 08:51:42;;;;;;;5.18;4.68;;;;;;;25.30;55.05;99783.41;4414867;32;20198;-69
2021/10/19 08:54:09;;;;;;;4.87;4.20;;;;;;;25.39;54.82;99773.53;4414164;32;20116;-70
2021/10/19 08:56:37;;;;;;;5.05;3.58;;;;;;;25.70;54.19;99771.59;4415220;32;20398;-70
2021/10/19 08:59:04;;;;;;;2.87;2.42;;;;;;;25.67;54.58;99770.66;4408833;32;20141;-70
2021/10/19 09:04:12;;;;;;;4.90;1.98;;;;;;;25.85;53.98;99760.19;3962381;32;15656878;-71
2021/10/19 09:06:40;;;;;;;3.53;1.73;;;;;;;25.81;54.41;99756.91;4429260;32;20088;-70
2021/10/19 09:09:08;;;;;;;5.30;2.33;;;;;;;25.69;54.84;99761.44;4432569;32;20443;-71
2021/10/19 09:14:17;;;;;;;2.40;1.75;;;;;;;26.56;53.36;99758.00;3992541;31;15016251;-69
2021/10/19 09:16:45;;;;;;;1.67;1.40;;;;;;;26.56;53.36;99758.00;4426295;32;20048;-70
2021/10/19 09:19:15;;;;;;;2.22;1.50;;;;;;;26.27;53.34;99765.25;4445137;32;21215;-69
2021/10/19 09:21:44;;;;;;;4.07;1.27;;;;;;;26.50;52.92;99759.53;4430564;32;20103;-70
2021/10/19 09:29:28;;;;;;;1.87;1.12;;;;;;;27.42;50.73;99753.34;3996801;31;15014830;-70
2021/10/19 09:31:57;;;;;;;5.82;1.50;;;;;;;27.42;50.73;99753.34;4452834;32;20470;-70
2021/10/19 09:34:28;;;;;;;1.92;1.05;;;;;;;26.91;51.54;99757.13;4457115;32;20079;-70
2021/10/19 09:36:55;;;;;;;1.15;0.85;;;;;;;26.89;51.78;99762.75;4453928;32;20093;-70
2021/10/19 09:42:07;;;;;;;5.53;1.35;;;;;;;27.51;50.79;99750.63;3978124;32;15025464;-71
2021/10/19 09:44:33;;;;;;;2.35;1.00;;;;;;;27.51;50.79;99750.63;4427463;32;20087;-70
2021/10/19 09:47:01;;;;;;;1.60;1.10;;;;;;;26.52;52.54;99753.97;4425960;32;20117;-70
2021/10/19 09:49:28;;;;;;;2.25;1.00;;;;;;;26.67;52.40;99754.81;4427952;32;20081;-70
2021/10/19 09:51:57;;;;;;;2.33;1.30;;;;;;;26.68;52.42;99756.34;4428823;32;20075;-71
2021/10/19 09:54:27;;;;;;;2.42;1.17;;;;;;;26.98;51.94;99750.63;4430786;32;20077;-71
2021/10/19 09:56:56;;;;;;;3.87;1.08;;;;;;;26.77;52.60;99758.66;4427834;32;20222;-70
2021/10/19 09:59:22;;;;;;;4.12;1.50;;;;;;;26.48;53.56;99762.22;4428441;32;20074;-70
2021/10/19 10:01:49;;;;;;;4.70;1.62;;;;;;;26.31;54.05;99759.06;4428029;32;20144;-70
2021/10/19 10:04:15;;;;;;;3.50;1.60;;;;;;;26.30;54.00;99743.13;4425290;32;20098;-70
2021/10/19 10:06:41;;;;;;;2.60;1.50;;;;;;;26.29;54.22;99736.56;4423599;32;20045;-70
2021/10/19 10:09:08;;;;;;;4.35;1.35;;;;;;;26.36;54.27;99755.25;4430211;32;20131;-70
2021/10/19 10:11:39;;;;;;;4.22;1.60;;;;;;;26.22;54.97;99757.50;4428643;32;20137;-71
2021/10/19 10:14:05;;;;;;;2.55;1.30;;;;;;;26.63;54.13;99750.75;4430049;32;20060;-70
2021/10/19 10:16:43;;;;;;;3.53;1.67;;;;;;;26.49;54.46;99749.34;4427828;32;20085;-70
2021/10/19 10:19:11;;;;;;;3.12;1.35;;;;;;;26.64;54.12;99752.28;4430584;32;20045;-70
2021/10/19 10:21:46;;;;;;;2.55;1.23;;;;;;;26.34;54.74;99744.28;4429783;32;20122;-70
2021/10/19 10:24:12;;;;;;;2.65;1.40;;;;;;;26.71;54.09;99758.09;4428163;32;20068;-71
2021/10/19 10:26:39;;;;;;;5.87;1.10;;;;;;;26.47;54.58;99752.78;4429522;32;20041;-71
2021/10/19 10:31:56;;;;;;;5.72;1.30;;;;;;;27.16;53.35;99745.81;3963422;31;15708672;-71
2021/10/19 10:34:31;;;;;;;2.85;1.40;;;;;;;26.88;53.34;99746.75;4434597;32;20618;-70
2021/10/19 10:37:13;;;;;;;;;;;;;;;26.99;53.50;99757.94;4431230;32;20083;-70
2021/10/19 10:39:43;;;;;;;4.12;1.00;;;;;;;27.22;52.51;99752.91;4434980;32;20085;-70
2021/10/19 10:42:10;;;;;;;2.80;1.25;;;;;;;27.14;53.29;99755.06;4434594;32;20106;-70
2021/10/19 10:44:38;;;;;;;2.40;1.30;;;;;;;27.52;52.33;99751.41;4432561;32;20088;-70
2021/10/19 10:47:05;;;;;;;1.67;0.85;;;;;;;27.59;51.75;99754.28;4432926;32;20084;-70
2021/10/19 10:49:32;;;;;;;2.67;0.82;;;;;;;27.43;51.74;99764.31;4435624;32;20458;-70
2021/10/19 10:52:00;;;;;;;2.50;0.95;;;;;;;27.67;51.71;99768.72;4432747;32;20057;-70
2021/10/19 10:54:25;;;;;;;6.85;2.85;;;;;;;27.48;51.40;99759.69;4432174;32;20065;-69
2021/10/19 10:56:53;;;;;;;3.92;0.88;;;;;;;27.32;51.87;99767.59;4433277;32;20045;-68
2021/10/19 10:59:24;;;;;;;2.20;1.20;;;;;;;27.54;51.38;99775.47;4436551;32;20545;-69
2021/10/19 11:01:50;;;;;;;1.65;1.10;;;;;;;27.61;51.61;99771.78;4433746;32;20318;-70
2021/10/19 11:04:16;;;;;;;1.98;1.23;;;;;;;27.37;51.39;99786.88;4433429;32;20088;-71
2021/10/19 11:06:43;;;;;;;5.72;1.12;;;;;;;27.75;51.18;99772.34;4430324;32;20426;-71
2021/10/19 11:11:46;;;;;;;13.88;2.45;;;;;;;28.71;48.95;99784.97;3956463;32;15052487;-71
2021/10/19 11:14:15;;;;;;;3.10;1.40;;;;;;;28.71;48.95;99784.97;4408682;32;20154;-72
2021/10/19 11:22:12;;;;;;;3.83;1.23;;;;;;;27.80;50.57;99783.72;3963506;32;15026820;-71
2021/10/19 11:24:38;;;;;;;1.40;0.70;;;;;;;27.80;50.57;99783.72;4419674;32;20097;-71
2021/10/19 11:27:06;;;;;;;3.30;1.17;;;;;;;27.26;50.66;99774.91;4413977;32;20072;-71
2021/10/19 11:29:37;;;;;;;2.17;1.02;;;;;;;27.33;51.15;99777.03;4413439;32;20100;-71
2021/10/19 11:32:05;;;;;;;4.47;1.30;;;;;;;27.77;49.96;99779.13;4399829;32;20125;-71
2021/10/19 11:34:30;;;;;;;4.85;1.55;;;;;;;27.56;50.25;99787.22;4415387;32;20065;-70
2021/10/19 11:36:57;;;;;;;3.20;1.02;;;;;;;27.82;49.63;99783.16;4412628;32;20518;-71
2021/10/19 11:39:23;;;;;;;2.72;1.10;;;;;;;27.22;50.51;99769.50;4414446;32;20068;-70
2021/10/19 11:41:56;;;;;;;2.50;1.00;;;;;;;27.20;51.07;99763.50;4410280;32;20450;-69
2021/10/19 11:44:27;;;;;;;2.67;1.23;;;;;;;27.54;50.39;99761.03;4415750;32;20549;-71
2021/10/19 11:46:54;;;;;;;3.15;1.17;;;;;;;27.48;50.68;99765.47;4413020;32;20087;-69